createdAt,value
2023-02-13T00:03:39.631Z,22.13
2023-02-13T00:08:43.073Z,23.88
2023-02-13T00:13:46.782Z,18.65
2023-02-13T00:23:52.988Z,13.50
2023-02-13T00:28:58.000Z,13.35
2023-02-13T00:34:01.451Z,14.82
2023-02-13T00:39:04.863Z,15.50
2023-02-13T00:44:10.329Z,15.52
2023-02-13T00:49:13.650Z,15.27
2023-02-13T00:54:17.098Z,16.42
2023-02-13T00:59:20.644Z,21.05
2023-02-13T01:04:24.659Z,28.80
2023-02-13T01:09:29.386Z,27.60
2023-02-13T01:14:32.747Z,18.52
2023-02-13T01:19:35.871Z,17.45
2023-02-13T01:24:38.921Z,14.73
2023-02-13T01:29:41.823Z,17.55
2023-02-13T01:34:49.478Z,18.63
2023-02-13T01:39:54.941Z,21.38
2023-02-13T01:45:01.524Z,17.85
2023-02-13T01:50:22.344Z,16.80
2023-02-13T01:55:27.344Z,16.45
2023-02-13T02:00:32.043Z,17.75
2023-02-13T02:05:36.937Z,16.33
2023-02-13T02:10:41.838Z,17.40
2023-02-13T02:15:51.037Z,13.02
2023-02-13T02:21:10.737Z,13.63
2023-02-13T02:26:35.454Z,11.48
2023-02-13T02:32:10.191Z,12.48
2023-02-13T02:37:45.567Z,11.32
2023-02-13T02:43:01.359Z,11.20
2023-02-13T02:48:38.553Z,8.90
2023-02-13T02:53:58.662Z,9.13
2023-02-13T02:59:27.176Z,8.48
2023-02-13T03:04:58.999Z,8.38
2023-02-13T03:10:42.348Z,7.57
2023-02-13T03:16:06.161Z,7.70
2023-02-13T03:21:40.110Z,7.68
2023-02-13T03:26:55.968Z,8.65
2023-02-13T03:32:24.677Z,7.45
2023-02-13T03:37:51.798Z,9.13
2023-02-13T03:43:10.006Z,9.52
2023-02-13T03:48:35.436Z,10.07
2023-02-13T03:53:42.131Z,9.68
2023-02-13T03:59:07.963Z,11.30
2023-02-13T04:04:31.754Z,10.15
2023-02-13T04:09:38.544Z,10.70
2023-02-13T04:14:52.044Z,10.13
2023-02-13T04:19:55.714Z,9.55
2023-02-13T04:24:59.443Z,9.98
2023-02-13T04:30:02.550Z,10.05
2023-02-13T04:35:06.876Z,10.45
2023-02-13T04:40:11.375Z,8.77
2023-02-13T04:45:14.522Z,9.98
2023-02-13T04:50:17.838Z,9.77
2023-02-13T04:55:21.397Z,9.85
2023-02-13T05:00:27.175Z,10.07
2023-02-13T05:05:30.224Z,10.93
2023-02-13T05:10:36.197Z,10.18
2023-02-13T05:15:40.818Z,9.27
2023-02-13T05:20:44.256Z,9.27
2023-02-13T05:25:48.081Z,8.82
2023-02-13T05:30:57.473Z,8.80
2023-02-13T05:36:01.625Z,9.20
2023-02-13T05:41:05.094Z,10.00
2023-02-13T05:46:12.844Z,8.93
2023-02-13T05:51:16.312Z,9.23
2023-02-13T06:01:23.693Z,9.57
2023-02-13T06:06:27.105Z,8.88
2023-02-13T06:11:30.827Z,8.90
2023-02-13T06:16:35.160Z,8.63
2023-02-13T06:21:38.888Z,8.68
2023-02-13T06:26:43.527Z,8.70
2023-02-13T06:31:47.120Z,11.25
2023-02-13T06:36:53.009Z,11.23
2023-02-13T06:41:57.094Z,10.38
2023-02-13T06:47:01.490Z,8.65
2023-02-13T06:52:04.997Z,9.20
2023-02-13T06:57:09.178Z,9.40
2023-02-13T07:02:13.718Z,8.80
2023-02-13T07:07:20.820Z,8.23
2023-02-13T07:12:25.182Z,7.70
2023-02-13T07:17:28.273Z,7.05
2023-02-13T07:22:35.433Z,6.53
2023-02-13T07:44:05.989Z,8.82
2023-02-13T08:09:40.978Z,8.52
2023-02-13T08:14:44.898Z,7.85
2023-02-13T08:20:34.564Z,7.00
2023-02-13T08:26:39.328Z,7.03
2023-02-13T08:45:55.126Z,11.98
2023-02-13T08:51:17.894Z,17.33
2023-02-13T09:03:53.506Z,8.55
2023-02-13T09:09:51.411Z,5.63
2023-02-13T09:15:41.715Z,7.30
2023-02-13T09:29:02.046Z,6.07
2023-02-13T10:03:12.945Z,10.02
2023-02-13T10:17:25.129Z,11.95
2023-02-13T10:23:36.133Z,9.07
2023-02-13T10:30:16.082Z,9.80
2023-02-13T10:57:26.473Z,12.63
2023-02-13T11:23:52.316Z,16.23
2023-02-13T11:29:02.168Z,14.15
2023-02-13T11:34:29.442Z,15.95
2023-02-13T11:39:42.483Z,15.23
2023-02-13T11:44:52.042Z,15.20
2023-02-13T11:49:55.095Z,19.40
2023-02-13T11:55:30.152Z,19.75
2023-02-13T12:00:45.302Z,13.07
2023-02-13T12:34:47.982Z,19.20
2023-02-13T12:41:45.602Z,21.83
2023-02-13T12:57:16.748Z,41.45
2023-02-13T13:02:58.890Z,31.75
2023-02-13T13:09:15.491Z,37.13
2023-02-13T13:16:39.418Z,28.83
2023-02-13T13:23:30.815Z,16.17
2023-02-13T13:30:35.785Z,22.08
2023-02-13T13:36:36.781Z,24.45
2023-02-13T13:49:52.126Z,23.38
2023-02-13T14:02:24.258Z,19.75
2023-02-13T14:13:58.486Z,16.35
2023-02-13T14:19:04.048Z,16.35
2023-02-13T14:24:13.968Z,18.08
2023-02-13T14:29:49.338Z,16.00
2023-02-13T14:55:17.929Z,17.85
2023-02-13T15:01:30.700Z,23.35
2023-02-13T15:07:04.478Z,19.60
2023-02-13T15:14:41.617Z,22.00
2023-02-13T15:20:17.564Z,80.93
2023-02-13T15:26:03.369Z,134.80
2023-02-13T15:32:21.737Z,148.85
2023-02-13T15:38:49.756Z,53.28
2023-02-13T15:44:44.979Z,70.82
2023-02-13T15:50:07.135Z,70.53
2023-02-13T15:55:33.906Z,125.28
2023-02-13T16:00:47.913Z,73.30
2023-02-13T16:12:27.627Z,35.97
2023-02-13T16:18:59.819Z,27.08
2023-02-13T16:44:17.188Z,17.38
2023-02-13T16:50:24.813Z,16.85
2023-02-13T16:56:15.631Z,14.43
2023-02-13T17:02:40.588Z,14.95
2023-02-13T17:15:35.308Z,21.52
2023-02-13T17:21:06.080Z,21.60
2023-02-13T17:46:33.373Z,26.65
2023-02-13T18:13:11.675Z,20.80
2023-02-13T18:25:51.131Z,29.10
2023-02-13T18:57:25.262Z,29.38
2023-02-13T19:02:29.353Z,16.55
2023-02-13T19:07:47.176Z,15.90
2023-02-13T19:13:16.274Z,15.95
2023-02-13T19:18:56.882Z,15.00
2023-02-13T19:24:21.950Z,18.42
2023-02-13T19:29:34.539Z,19.50
2023-02-13T19:34:56.070Z,16.23
2023-02-13T19:47:24.490Z,16.75
2023-02-13T20:05:23.781Z,15.70
2023-02-13T20:10:28.214Z,14.48
2023-02-13T20:16:35.205Z,17.55
2023-02-13T20:22:35.645Z,16.05
2023-02-13T20:27:55.582Z,12.10
2023-02-13T20:33:03.507Z,13.43
2023-02-13T20:38:14.247Z,12.00
2023-02-13T20:43:33.302Z,13.75
2023-02-13T20:48:47.342Z,28.52
2023-02-13T20:54:10.626Z,17.50
2023-02-13T20:59:51.367Z,14.18
2023-02-13T21:05:12.501Z,14.20
2023-02-13T21:10:20.781Z,15.45
2023-02-13T21:15:30.056Z,17.10
2023-02-13T21:46:37.055Z,19.60
2023-02-13T21:52:17.322Z,19.23
2023-02-13T21:58:07.967Z,22.00
2023-02-13T22:23:27.697Z,19.48
2023-02-13T22:35:27.411Z,19.90
2023-02-13T22:52:31.365Z,17.23
2023-02-13T22:58:23.077Z,19.33
2023-02-13T23:03:55.901Z,18.55
2023-02-13T23:18:22.921Z,20.60
2023-02-13T23:24:16.126Z,18.45
2023-02-13T23:29:55.523Z,19.08
2023-02-13T23:35:16.745Z,17.30
2023-02-13T23:40:20.373Z,18.05
2023-02-13T23:45:33.813Z,17.65
2023-02-13T23:50:49.618Z,16.53
